Time;durP1;ratioP1;P1;durP2;ratioP2;P2;SDS_P1;SDS_P2;PMS_P1;PMS_P2;Temp;Humidity;BMP_temperature;BMP_pressure;BME280_temperature;BME280_humidity;BME280_pressure;Samples;Min_cycle;Max_cycle;Signal;HPM_P1;HPM_P2
2021/09/24 00:01:08;;;;;;;;;3480.33;3480.33;;;;;;;;6321051;22;9468;-84
2021/09/24 00:03:33;;;;;;;;;3487.25;3487.25;;;;;;;;6321064;22;8744;-84
2021/09/24 00:05:59;;;;;;;;;3442.75;3442.75;;;;;;;;6321327;22;8744;-84
2021/09/24 00:08:25;;;;;;;;;3480.25;3480.25;;;;;;;;6321109;22;8749;-84
2021/09/24 00:10:50;;;;;;;;;3464.20;3464.20;;;;;;;;6321050;22;8741;-84
2021/09/24 00:13:16;;;;;;;;;3495.00;3495.00;;;;;;;;6292324;22;8872;-84
2021/09/24 00:15:41;;;;;;;;;3512.33;3512.33;;;;;;;;6321254;22;8794;-84
2021/09/24 00:18:07;;;;;;;;;3507.25;3507.25;;;;;;;;6321198;22;8752;-85
2021/09/24 00:20:34;;;;;;;;;3458.50;3458.50;;;;;;;;6320852;22;8728;-84
2021/09/24 00:22:59;;;;;;;;;3491.40;3491.40;;;;;;;;6321193;22;8752;-84
2021/09/24 00:25:24;;;;;;;;;3512.33;3512.33;;;;;;;;6321135;22;8779;-84
2021/09/24 00:27:50;;;;;;;;;3505.00;3505.00;;;;;;;;6294397;22;8784;-85
2021/09/24 00:30:15;;;;;;;;;3490.33;3490.33;;;;;;;;6321270;22;8807;-85
2021/09/24 00:32:40;;;;;;;;;3505.00;3505.00;;;;;;;;6319986;22;8776;-84
2021/09/24 00:35:06;;;;;;;;;3467.50;3467.50;;;;;;;;6321153;22;9469;-84
2021/09/24 00:37:31;;;;;;;;;3463.75;3463.75;;;;;;;;6321184;22;8765;-84
2021/09/24 00:39:57;;;;;;;;;3478.00;3478.00;;;;;;;;6321183;22;8777;-82
2021/09/24 00:42:22;;;;;;;;;3472.75;3472.75;;;;;;;;6320820;22;8848;-83
2021/09/24 00:44:49;;;;;;;;;3467.50;3467.50;;;;;;;;6320817;22;8748;-83
2021/09/24 00:47:15;;;;;;;;;3478.40;3478.40;;;;;;;;6292462;22;8764;-83
2021/09/24 00:49:40;;;;;;;;;3493.00;3493.00;;;;;;;;6292599;22;8851;-84
2021/09/24 00:52:06;;;;;;;;;3478.00;3478.00;;;;;;;;6321000;22;8772;-84
2021/09/24 00:54:31;;;;;;;;;3471.00;3471.00;;;;;;;;6321125;22;8816;-84
2021/09/24 00:56:56;;;;;;;;;3467.50;3467.50;;;;;;;;6321111;22;8752;-84
2021/09/24 00:59:22;;;;;;;;;3471.00;3471.00;;;;;;;;6320694;22;8866;-84
2021/09/24 01:01:47;;;;;;;;;3478.00;3478.00;;;;;;;;6320811;22;8775;-84
2021/09/24 01:04:13;;;;;;;;;3480.00;3480.00;;;;;;;;6292005;22;8772;-84
2021/09/24 01:06:39;;;;;;;;;3472.75;3472.75;;;;;;;;6320948;22;8752;-83
2021/09/24 01:09:04;;;;;;;;;3487.75;3487.75;;;;;;;;6320971;22;8811;-83
2021/09/24 01:11:30;;;;;;;;;3493.00;3493.00;;;;;;;;6320836;22;8752;-84
2021/09/24 01:13:55;;;;;;;;;3491.25;3491.25;;;;;;;;6320405;22;8910;-84
2021/09/24 01:16:20;;;;;;;;;3476.50;3476.50;;;;;;;;6320720;22;8748;-84
2021/09/24 01:18:46;;;;;;;;;3493.00;3493.00;;;;;;;;6320505;22;8780;-84
2021/09/24 01:21:11;;;;;;;;;3493.00;3493.00;;;;;;;;6320462;22;8756;-84
2021/09/24 01:23:37;;;;;;;;;3486.00;3486.00;;;;;;;;6320397;22;8772;-84
2021/09/24 01:26:02;;;;;;;;;3503.50;3503.50;;;;;;;;6320743;22;8777;-84
2021/09/24 01:28:27;;;;;;;;;3487.75;3487.75;;;;;;;;6320168;22;8749;-84
2021/09/24 01:30:53;;;;;;;;;3496.50;3496.50;;;;;;;;6320546;22;9500;-84
2021/09/24 01:33:18;;;;;;;;;3491.25;3491.25;;;;;;;;6320148;22;8834;-84
2021/09/24 01:35:43;;;;;;;;;3491.25;3491.25;;;;;;;;6320602;22;8757;-84
2021/09/24 01:38:09;;;;;;;;;3493.00;3493.00;;;;;;;;6292131;22;8752;-84
2021/09/24 01:40:34;;;;;;;;;3493.00;3493.00;;;;;;;;6320429;22;8764;-84
2021/09/24 01:43:00;;;;;;;;;3481.75;3481.75;;;;;;;;6320352;22;8775;-84
2021/09/24 01:45:25;;;;;;;;;3493.00;3493.00;;;;;;;;6321980;22;8764;-84
2021/09/24 01:47:51;;;;;;;;;3486.00;3486.00;;;;;;;;6293663;22;8791;-85
2021/09/24 01:50:16;;;;;;;;;3493.00;3493.00;;;;;;;;6322190;22;8796;-84
2021/09/24 01:52:41;;;;;;;;;3491.25;3491.25;;;;;;;;6321480;22;9500;-84
2021/09/24 01:55:08;;;;;;;;;3493.00;3493.00;;;;;;;;6293992;22;8909;-84
2021/09/24 01:57:34;;;;;;;;;3486.80;3486.80;;;;;;;;6321574;22;8729;-85
2021/09/24 01:59:59;;;;;;;;;3474.25;3474.25;;;;;;;;6321752;22;8744;-84
2021/09/24 02:02:24;;;;;;;;;3472.75;3472.75;;;;;;;;6321513;22;8764;-86
2021/09/24 02:04:50;;;;;;;;;3478.00;3478.00;;;;;;;;6321820;22;8826;-85
2021/09/24 02:07:15;;;;;;;;;3469.00;3469.00;;;;;;;;6293298;22;8799;-82
2021/09/24 02:09:40;;;;;;;;;3469.00;3469.00;;;;;;;;6322130;22;8800;-83
2021/09/24 02:12:06;;;;;;;;;3482.25;3482.25;;;;;;;;6321722;22;8776;-85
2021/09/24 02:14:32;;;;;;;;;3472.75;3472.75;;;;;;;;6321770;22;8788;-82
2021/09/24 02:16:58;;;;;;;;;3472.40;3472.40;;;;;;;;6322046;22;8737;-83
2021/09/24 02:19:23;;;;;;;;;3471.00;3471.00;;;;;;;;6321721;22;8760;-83
2021/09/24 02:21:48;;;;;;;;;3469.00;3469.00;;;;;;;;6321621;22;8752;-83
2021/09/24 02:24:14;;;;;;;;;3467.25;3467.25;;;;;;;;6321847;22;8760;-82
2021/09/24 02:26:39;;;;;;;;;3469.00;3469.00;;;;;;;;6321171;22;8889;-81
2021/09/24 02:29:05;;;;;;;;;3469.00;3469.00;;;;;;;;6320593;22;8847;-82
2021/09/24 02:31:30;;;;;;;;;3463.75;3463.75;;;;;;;;6293270;22;8784;-82
2021/09/24 02:33:56;;;;;;;;;3496.00;3496.00;;;;;;;;6321451;22;8756;-82
2021/09/24 02:36:21;;;;;;;;;3462.00;3462.00;;;;;;;;6321642;22;8764;-83
2021/09/24 02:38:46;;;;;;;;;3469.00;3469.00;;;;;;;;6321654;22;8830;-82
2021/09/24 02:41:12;;;;;;;;;3463.75;3463.75;;;;;;;;6321844;22;8772;-83
2021/09/24 02:43:37;;;;;;;;;3489.00;3489.00;;;;;;;;6321438;22;8736;-83
2021/09/24 02:46:03;;;;;;;;;3492.80;3492.80;;;;;;;;6293663;22;8891;-83
2021/09/24 02:48:28;;;;;;;;;3507.00;3507.00;;;;;;;;6321732;22;8756;-83
2021/09/24 02:50:53;;;;;;;;;3485.67;3485.67;;;;;;;;6321742;22;8802;-83
2021/09/24 02:53:19;;;;;;;;;3489.00;3489.00;;;;;;;;6293461;22;8772;-83
2021/09/24 02:55:44;;;;;;;;;3485.40;3485.40;;;;;;;;6321156;22;11536;-83
2021/09/24 02:58:09;;;;;;;;;3507.33;3507.33;;;;;;;;6321559;22;8756;-83
2021/09/24 03:00:35;;;;;;;;;3502.33;3502.33;;;;;;;;6321811;22;8757;-83
2021/09/24 03:03:00;;;;;;;;;3499.80;3499.80;;;;;;;;6321687;22;9663;-83
2021/09/24 03:05:26;;;;;;;;;3491.40;3491.40;;;;;;;;6321282;22;8799;-83
2021/09/24 03:07:51;;;;;;;;;3500.00;3500.00;;;;;;;;6321559;22;8756;-82
2021/09/24 03:10:17;;;;;;;;;3500.00;3500.00;;;;;;;;6293492;22;11556;-83
2021/09/24 03:12:42;;;;;;;;;3482.60;3482.60;;;;;;;;6320952;22;12260;-82
2021/09/24 03:15:09;;;;;;;;;3489.00;3489.00;;;;;;;;6321503;22;8748;-82
2021/09/24 03:17:35;;;;;;;;;3482.60;3482.60;;;;;;;;6321137;22;8740;-82
2021/09/24 03:20:00;;;;;;;;;3493.00;3493.00;;;;;;;;6321686;22;8833;-82
2021/09/24 03:22:26;;;;;;;;;3482.00;3482.00;;;;;;;;6321329;22;11464;-82
2021/09/24 03:24:52;;;;;;;;;3493.00;3493.00;;;;;;;;6322073;22;8839;-82
2021/09/24 03:27:18;;;;;;;;;3483.80;3483.80;;;;;;;;6321096;22;8906;-82
2021/09/24 03:29:43;;;;;;;;;3473.00;3473.00;;;;;;;;6320778;22;8768;-83
2021/09/24 03:32:08;;;;;;;;;3480.00;3480.00;;;;;;;;6321321;22;9461;-83
2021/09/24 03:34:34;;;;;;;;;3480.00;3480.00;;;;;;;;6321084;22;8813;-83
2021/09/24 03:36:59;;;;;;;;;3461.75;3461.75;;;;;;;;6321355;22;8843;-83
2021/09/24 03:39:24;;;;;;;;;3473.00;3473.00;;;;;;;;6321485;22;8775;-83
2021/09/24 03:41:52;;;;;;;;;3461.33;3461.33;;;;;;;;6292772;22;8768;-82
2021/09/24 03:44:17;;;;;;;;;3449.75;3449.75;;;;;;;;6321189;22;8849;-83
2021/09/24 03:46:42;;;;;;;;;3433.75;3433.75;;;;;;;;6293046;22;8780;-82
2021/09/24 03:49:08;;;;;;;;;3446.00;3446.00;;;;;;;;6293181;22;8776;-83
2021/09/24 03:51:34;;;;;;;;;3464.80;3464.80;;;;;;;;6320946;22;9713;-83
2021/09/24 03:54:00;;;;;;;;;3466.00;3466.00;;;;;;;;6321443;22;8733;-83
2021/09/24 03:56:25;;;;;;;;;3456.67;3456.67;;;;;;;;6321505;22;8768;-83
2021/09/24 03:58:50;;;;;;;;;3456.67;3456.67;;;;;;;;6320983;22;8752;-83
2021/09/24 04:01:16;;;;;;;;;3435.50;3435.50;;;;;;;;6321086;22;9653;-82
2021/09/24 04:03:43;;;;;;;;;3454.75;3454.75;;;;;;;;6321158;22;8764;-83
2021/09/24 04:06:09;;;;;;;;;3452.20;3452.20;;;;;;;;6321388;22;8748;-83
2021/09/24 04:08:34;;;;;;;;;2124.75;2122.00;;;;;;;;6320691;22;8851;-83
2021/09/24 04:10:59;;;;;;;;;3315.50;3314.00;;;;;;;;6292894;22;8768;-83
2021/09/24 04:13:25;;;;;;;;;2268.25;2264.50;;;;;;;;6320874;22;8942;-84
2021/09/24 04:15:50;;;;;;;;;3116.25;3114.75;;;;;;;;6321075;22;8746;-84
2021/09/24 04:18:15;;;;;;;;;3471.00;3471.00;;;;;;;;6292834;22;8780;-82
2021/09/24 04:20:41;;;;;;;;;3482.60;3482.60;;;;;;;;6321151;22;8721;-83
2021/09/24 04:23:06;;;;;;;;;3474.75;3474.75;;;;;;;;6321177;22;8887;-83
2021/09/24 04:25:32;;;;;;;;;3485.50;3485.50;;;;;;;;6321267;22;8807;-82
2021/09/24 04:27:57;;;;;;;;;3470.80;3470.80;;;;;;;;6320463;22;8786;-83
2021/09/24 04:30:22;;;;;;;;;3471.00;3471.00;;;;;;;;6320947;22;8787;-82
2021/09/24 04:32:48;;;;;;;;;3488.00;3488.00;;;;;;;;6320616;22;8752;-80
2021/09/24 04:35:14;;;;;;;;;3478.00;3478.00;;;;;;;;6320967;22;8838;-81
2021/09/24 04:37:39;;;;;;;;;3445.40;3445.40;;;;;;;;6321242;22;8868;-80
2021/09/24 04:40:05;;;;;;;;;3435.50;3435.50;;;;;;;;6321320;22;8729;-82
2021/09/24 04:42:31;;;;;;;;;3423.25;3423.25;;;;;;;;6320556;22;8760;-81
2021/09/24 04:44:56;;;;;;;;;3423.25;3423.25;;;;;;;;6321106;22;8760;-81
2021/09/24 04:47:21;;;;;;;;;3459.00;3459.00;;;;;;;;6321260;22;8744;-82
2021/09/24 04:49:47;;;;;;;;;3482.00;3482.00;;;;;;;;6293458;22;8890;-81
2021/09/24 04:52:12;;;;;;;;;3482.00;3482.00;;;;;;;;6321146;22;8839;-81
2021/09/24 04:54:37;;;;;;;;;3466.00;3466.00;;;;;;;;6321378;22;8949;-81
2021/09/24 04:57:03;;;;;;;;;3471.00;3471.00;;;;;;;;6320572;22;8784;-81
2021/09/24 04:59:28;;;;;;;;;3458.00;3458.00;;;;;;;;6321030;22;8769;-81
2021/09/24 05:01:53;;;;;;;;;3446.00;3446.00;;;;;;;;6320758;22;9472;-80
2021/09/24 05:04:19;;;;;;;;;3438.00;3438.00;;;;;;;;6292467;22;8838;-81
2021/09/24 05:06:44;;;;;;;;;3452.75;3452.75;;;;;;;;6319934;22;8744;-81
2021/09/24 05:09:09;;;;;;;;;3435.50;3435.50;;;;;;;;6320872;22;8736;-81
2021/09/24 05:11:35;;;;;;;;;3414.50;3414.50;;;;;;;;6320374;22;8768;-81
2021/09/24 05:14:00;;;;;;;;;3423.67;3423.67;;;;;;;;6320262;22;8749;-81
2021/09/24 05:16:25;;;;;;;;;3435.67;3435.67;;;;;;;;6320844;22;8823;-82
2021/09/24 05:18:51;;;;;;;;;3431.75;3431.75;;;;;;;;6321156;22;8907;-82
2021/09/24 05:21:16;;;;;;;;;3452.75;3452.75;;;;;;;;6293603;22;8764;-82
2021/09/24 05:23:42;;;;;;;;;3421.33;3421.33;;;;;;;;6293991;22;9460;-81
2021/09/24 05:26:07;;;;;;;;;3435.50;3435.50;;;;;;;;6322129;22;8744;-84
2021/09/24 05:28:33;;;;;;;;;3453.00;3453.00;;;;;;;;6301124;22;8791;-86
2021/09/24 05:30:58;;;;;;;;;3463.50;3463.50;;;;;;;;6353823;22;8779;-83
2021/09/24 05:33:23;;;;;;;;;3451.00;3451.00;;;;;;;;6352838;22;8740;-84
2021/09/24 05:35:49;;;;;;;;;3430.00;3430.00;;;;;;;;6353660;22;8756;-84
2021/09/24 05:38:14;;;;;;;;;3463.50;3463.50;;;;;;;;6353414;22;8739;-84
2021/09/24 05:40:40;;;;;;;;;3468.33;3468.33;;;;;;;;6353612;22;8825;-84
2021/09/24 05:43:05;;;;;;;;;3474.50;3474.50;;;;;;;;6353410;22;8759;-83
2021/09/24 05:45:30;;;;;;;;;3463.50;3463.50;;;;;;;;6353500;22;8755;-85
2021/09/24 05:47:56;;;;;;;;;3453.00;3453.00;;;;;;;;6353595;22;9500;-84
2021/09/24 05:50:21;;;;;;;;;3454.00;3454.00;;;;;;;;6353802;22;8778;-84
2021/09/24 05:52:51;;;;;;;;;3464.00;3464.00;;;;;;;;6353633;22;8755;-84
2021/09/24 05:55:17;;;;;;;;;3451.00;3451.00;;;;;;;;6353384;22;11439;-85
2021/09/24 05:57:43;;;;;;;;;3451.00;3451.00;;;;;;;;6353184;22;8704;-84
2021/09/24 06:00:09;;;;;;;;;3437.67;3437.67;;;;;;;;6353243;22;9498;-85
2021/09/24 06:02:34;;;;;;;;;3445.00;3445.00;;;;;;;;6353401;22;8727;-85
2021/09/24 06:05:00;;;;;;;;;3456.50;3456.50;;;;;;;;6353126;22;8762;-83
2021/09/24 06:07:25;;;;;;;;;3463.50;3463.50;;;;;;;;6353733;22;8881;-84
2021/09/24 06:09:51;;;;;;;;;3449.25;3449.25;;;;;;;;6353743;22;8755;-75
2021/09/24 06:12:16;;;;;;;;;3452.75;3452.75;;;;;;;;6353081;22;8917;-83
2021/09/24 06:14:41;;;;;;;;;3456.50;3456.50;;;;;;;;6353212;22;8770;-83
2021/09/24 06:17:09;;;;;;;;;3463.50;3463.50;;;;;;;;6353683;22;8736;-82
2021/09/24 06:19:35;;;;;;;;;3449.40;3449.40;;;;;;;;6353547;22;8712;-83
2021/09/24 06:22:00;;;;;;;;;3460.00;3460.00;;;;;;;;6353550;22;8724;-84
2021/09/24 06:24:25;;;;;;;;;3444.00;3444.00;;;;;;;;6353506;22;8739;-83
2021/09/24 06:26:51;;;;;;;;;3453.00;3453.00;;;;;;;;6353403;22;8736;-83
2021/09/24 06:29:16;;;;;;;;;3453.00;3453.00;;;;;;;;6352445;22;8852;-83
2021/09/24 06:31:41;;;;;;;;;3449.50;3449.50;;;;;;;;6352620;22;8747;-83
2021/09/24 06:34:07;;;;;;;;;3453.00;3453.00;;;;;;;;6324608;22;8775;-83
2021/09/24 06:36:32;;;;;;;;;3460.00;3460.00;;;;;;;;6353570;22;8747;-83
2021/09/24 06:38:57;;;;;;;;;3447.00;3447.00;;;;;;;;6353506;22;8838;-83
2021/09/24 06:41:23;;;;;;;;;3447.00;3447.00;;;;;;;;6353388;22;8814;-83
2021/09/24 06:43:48;;;;;;;;;3447.00;3447.00;;;;;;;;6353149;22;8747;-86
2021/09/24 06:46:13;;;;;;;;;3424.75;3424.75;;;;;;;;6352192;22;9573;-82
2021/09/24 06:48:39;;;;;;;;;3407.25;3407.25;;;;;;;;6353487;22;9496;-82
2021/09/24 06:51:04;;;;;;;;;3407.25;3407.25;;;;;;;;6324908;22;8876;-82
2021/09/24 06:53:29;;;;;;;;;3405.50;3405.50;;;;;;;;6324885;22;8855;-82
2021/09/24 06:55:57;;;;;;;;;3407.25;3407.25;;;;;;;;6353286;22;8855;-82
2021/09/24 06:58:23;;;;;;;;;3409.20;3409.20;;;;;;;;6352728;22;8842;-82
2021/09/24 07:00:48;;;;;;;;;3395.75;3395.75;;;;;;;;6353214;22;8809;-82
2021/09/24 07:03:13;;;;;;;;;3405.50;3405.50;;;;;;;;6325207;22;8795;-82
2021/09/24 07:05:38;;;;;;;;;3412.50;3412.50;;;;;;;;6352943;22;8743;-82
2021/09/24 07:08:04;;;;;;;;;3402.75;3402.75;;;;;;;;6353106;22;8782;-83
2021/09/24 07:10:29;;;;;;;;;3412.50;3412.50;;;;;;;;6353033;22;8755;-82
2021/09/24 07:12:55;;;;;;;;;3395.75;3395.75;;;;;;;;6352730;22;8868;-83
2021/09/24 07:15:20;;;;;;;;;3407.25;3407.25;;;;;;;;6353169;22;8732;-85
2021/09/24 07:17:45;;;;;;;;;3407.25;3407.25;;;;;;;;6324729;22;8754;-83
2021/09/24 07:20:11;;;;;;;;;3388.50;3388.50;;;;;;;;6323823;22;8767;-84
2021/09/24 07:22:36;;;;;;;;;3393.75;3393.75;;;;;;;;6352766;22;8829;-84
2021/09/24 07:25:02;;;;;;;;;3388.50;3388.50;;;;;;;;6353099;22;8775;-82
2021/09/24 07:27:28;;;;;;;;;3409.20;3409.20;;;;;;;;6352062;22;8712;-83
2021/09/24 07:29:53;;;;;;;;;3395.75;3395.75;;;;;;;;6327277;22;8802;-83
2021/09/24 07:32:18;;;;;;;;;3405.50;3405.50;;;;;;;;6320931;22;8782;-83
2021/09/24 07:34:44;;;;;;;;;3385.25;3385.25;;;;;;;;6321362;22;8838;-83
2021/09/24 07:37:10;;;;;;;;;3379.75;3379.75;;;;;;;;6321450;22;8899;-83
2021/09/24 07:39:35;;;;;;;;;3407.60;3407.60;;;;;;;;6321511;22;8763;-83
2021/09/24 07:42:00;;;;;;;;;3379.75;3379.75;;;;;;;;6321339;22;8756;-84
2021/09/24 07:44:26;;;;;;;;;3379.75;3379.75;;;;;;;;6321059;22;8879;-82
2021/09/24 07:46:51;;;;;;;;;3395.75;3395.75;;;;;;;;6321404;22;8829;-83
2021/09/24 07:49:17;;;;;;;;;3388.50;3388.50;;;;;;;;6321600;22;8792;-82
2021/09/24 07:51:42;;;;;;;;;3379.75;3379.75;;;;;;;;6321560;22;8794;-84
2021/09/24 07:54:08;;;;;;;;;3375.25;3375.25;;;;;;;;6321470;22;11576;-84
2021/09/24 07:56:33;;;;;;;;;3375.25;3375.25;;;;;;;;6321710;22;8761;-83
2021/09/24 07:58:59;;;;;;;;;3381.50;3381.50;;;;;;;;6320749;22;8830;-83
2021/09/24 08:01:27;;;;;;;;;3375.25;3375.25;;;;;;;;6321711;22;8760;-83
2021/09/24 08:03:53;;;;;;;;;3385.80;3385.80;;;;;;;;6321043;22;8732;-83
2021/09/24 08:06:19;;;;;;;;;3375.25;3375.25;;;;;;;;6321529;22;8745;-82
2021/09/24 08:08:45;;;;;;;;;3383.00;3383.00;;;;;;;;6320360;22;9607;-82
2021/09/24 08:11:11;;;;;;;;;3375.25;3375.25;;;;;;;;6320701;22;8748;-82
2021/09/24 08:13:36;;;;;;;;;3383.00;3383.00;;;;;;;;6320835;22;8779;-82
2021/09/24 08:16:02;;;;;;;;;3393.75;3393.75;;;;;;;;6321312;22;8773;-82
2021/09/24 08:18:27;;;;;;;;;3386.75;3386.75;;;;;;;;6321223;22;8771;-84
2021/09/24 08:20:54;;;;;;;;;3388.50;3388.50;;;;;;;;6321195;22;8780;-82
2021/09/24 08:23:20;;;;;;;;;3387.20;3387.20;;;;;;;;6320980;22;8681;-82
2021/09/24 08:25:45;;;;;;;;;3385.80;3385.80;;;;;;;;6321334;22;8733;-82
2021/09/24 08:28:10;;;;;;;;;3375.25;3375.25;;;;;;;;6320341;22;8786;-82
2021/09/24 08:30:36;;;;;;;;;3421.00;3421.00;;;;;;;;6320852;22;8784;-82
2021/09/24 08:33:02;;;;;;;;;3410.50;3410.50;;;;;;;;6320868;22;8748;-83
2021/09/24 08:35:28;;;;;;;;;3414.00;3414.00;;;;;;;;6321282;22;9626;-82
2021/09/24 08:37:54;;;;;;;;;3390.80;3390.80;;;;;;;;6321223;22;8748;-86
2021/09/24 08:40:21;;;;;;;;;3388.00;3388.00;;;;;;;;6320010;22;8737;-82
2021/09/24 08:42:47;;;;;;;;;3374.60;3374.60;;;;;;;;6320507;22;8744;-83
2021/09/24 08:45:13;;;;;;;;;3384.40;3384.40;;;;;;;;6292869;22;8802;-83
2021/09/24 08:47:39;;;;;;;;;3380.20;3380.20;;;;;;;;6321265;22;8735;-83
2021/09/24 08:50:06;;;;;;;;;3414.00;3414.00;;;;;;;;6292938;22;8749;-83
2021/09/24 08:52:32;;;;;;;;;3416.80;3416.80;;;;;;;;6321442;22;8733;-83
2021/09/24 08:54:57;;;;;;;;;3378.00;3378.00;;;;;;;;6321880;22;8810;-83
2021/09/24 08:57:22;;;;;;;;;3361.25;3361.25;;;;;;;;6322274;22;11461;-83
2021/09/24 08:59:48;;;;;;;;;3359.50;3359.50;;;;;;;;6322349;22;8749;-83
2021/09/24 09:02:13;;;;;;;;;3378.00;3378.00;;;;;;;;6322375;22;8768;-83
2021/09/24 09:04:41;;;;;;;;;3364.75;3364.75;;;;;;;;6321971;22;8740;-83
2021/09/24 09:07:08;;;;;;;;;3383.00;3383.00;;;;;;;;6322024;22;8823;-82
2021/09/24 09:09:38;;;;;;;;;3400.00;3400.00;;;;;;;;6321901;22;8810;-83
2021/09/24 09:12:23;;;;;;;;;3397.20;3397.20;;;;;;;;6322027;22;8767;-83
2021/09/24 09:15:05;;;;;;;;;3408.75;3408.75;;;;;;;;6294233;22;8787;-83
2021/09/24 09:17:35;;;;;;;;;3400.00;3400.00;;;;;;;;6294115;22;8744;-83
2021/09/24 09:20:18;;;;;;;;;3402.80;3402.80;;;;;;;;6322468;22;8720;-83
2021/09/24 09:22:45;;;;;;;;;3398.60;3398.60;;;;;;;;6294157;22;8724;-82
2021/09/24 09:25:22;;;;;;;;;3374.20;3374.20;;;;;;;;6322553;22;8704;-81
2021/09/24 09:27:48;;;;;;;;;3379.80;3379.80;;;;;;;;6321889;22;8729;-81
2021/09/24 09:30:14;;;;;;;;;3333.00;3333.00;;;;;;;;6321931;22;8788;-82
2021/09/24 09:32:43;;;;;;;;;3371.00;3371.00;;;;;;;;6294274;22;8752;-81
2021/09/24 09:35:09;;;;;;;;;3350.20;3350.20;;;;;;;;6322373;22;8705;-82
2021/09/24 09:37:39;;;;;;;;;3321.50;3321.50;;;;;;;;6322356;22;8744;-82
2021/09/24 09:40:06;;;;;;;;;3368.60;3368.60;;;;;;;;6322030;22;11667;-82
2021/09/24 09:42:35;;;;;;;;;3330.20;3330.20;;;;;;;;6321676;22;8752;-81
2021/09/24 09:45:01;;;;;;;;;3365.80;3365.80;;;;;;;;6321053;22;8705;-82
2021/09/24 09:47:28;;;;;;;;;3362.00;3362.00;;;;;;;;6293236;22;8738;-82
2021/09/24 09:50:03;;;;;;;;;3327.80;3327.80;;;;;;;;6321989;22;8814;-82
2021/09/24 09:52:30;;;;;;;;;3354.00;3354.00;;;;;;;;6322070;22;8762;-82
2021/09/24 09:55:00;;;;;;;;;3345.80;3345.80;;;;;;;;6321880;22;8728;-81
2021/09/24 09:57:27;;;;;;;;;3317.20;3317.20;;;;;;;;6322029;22;8739;-81
2021/09/24 09:59:53;;;;;;;;;3317.20;3317.20;;;;;;;;6322298;22;8890;-81
2021/09/24 10:02:21;;;;;;;;;3346.25;3346.25;;;;;;;;6321800;22;8779;-82
2021/09/24 10:04:53;;;;;;;;;3327.20;3327.20;;;;;;;;6321767;22;8751;-82
2021/09/24 10:07:21;;;;;;;;;3314.40;3314.40;;;;;;;;6321304;22;8696;-81
2021/09/24 10:09:49;;;;;;;;;3311.60;3311.60;;;;;;;;6321212;22;8725;-81
2021/09/24 10:12:16;;;;;;;;;3317.20;3317.20;;;;;;;;6320956;22;8756;-82
2021/09/24 10:14:41;;;;;;;;;3346.00;3346.00;;;;;;;;6322211;22;8728;-82
2021/09/24 10:17:06;;;;;;;;;3339.50;3339.50;;;;;;;;6293667;22;8760;-81
2021/09/24 10:19:33;;;;;;;;;3334.25;3334.25;;;;;;;;6293335;22;8865;-82
2021/09/24 10:21:58;;;;;;;;;2910.60;2910.60;;;;;;;;6321756;22;8847;-82
2021/09/24 10:24:23;;;;;;;;;3057.50;3057.00;;;;;;;;6322068;22;8729;-84
2021/09/24 10:26:54;;;;;;;;;3060.50;3060.00;;;;;;;;6321864;22;8740;-82
2021/09/24 10:29:22;;;;;;;;;2908.20;2908.20;;;;;;;;6321404;22;8724;-81
2021/09/24 10:31:48;;;;;;;;;2917.60;2917.20;;;;;;;;6293146;22;9271;-81
2021/09/24 10:34:14;;;;;;;;;3009.80;3009.80;;;;;;;;6321610;22;8737;-81
2021/09/24 10:36:43;;;;;;;;;3180.20;3180.20;;;;;;;;6321630;22;8752;-82
2021/09/24 10:39:27;;;;;;;;;3190.00;3190.00;;;;;;;;6322072;22;8736;-82
2021/09/24 10:42:11;;;;;;;;;3184.00;3184.00;;;;;;;;6321506;22;8740;-80
2021/09/24 10:44:55;;;;;;;;;3188.00;3188.00;;;;;;;;6321830;22;8737;-81
2021/09/24 10:47:39;;;;;;;;;3309.20;3309.20;;;;;;;;6322160;22;8751;-81
2021/09/24 10:50:24;;;;;;;;;3308.00;3308.00;;;;;;;;6321165;22;8728;-81
2021/09/24 10:53:19;;;;;;;;;3309.20;3309.20;;;;;;;;6320896;22;9532;-81
2021/09/24 10:55:44;;;;;;;;;3245.20;3245.20;;;;;;;;6293231;22;8751;-82
2021/09/24 10:58:14;;;;;;;;;106.75;99.00;;;;;;;;6321302;22;8850;-81
2021/09/24 11:00:45;;;;;;;;;111.20;102.40;;;;;;;;6322070;22;8957;-81
2021/09/24 11:03:15;;;;;;;;;1549.60;1543.80;;;;;;;;6293207;22;9095;-81
2021/09/24 11:05:58;;;;;;;;;2468.00;2465.00;;;;;;;;6321285;22;8739;-81
2021/09/24 11:08:40;;;;;;;;;2907.20;2905.80;;;;;;;;6320835;22;8756;-82
2021/09/24 11:11:07;;;;;;;;;2909.40;2908.00;;;;;;;;6321632;22;8836;-82
2021/09/24 11:13:34;;;;;;;;;2898.80;2897.20;;;;;;;;6321084;22;8917;-81
2021/09/24 11:16:07;;;;;;;;;2894.60;2893.20;;;;;;;;6321295;22;8748;-81
2021/09/24 11:18:53;;;;;;;;;2908.00;2907.00;;;;;;;;6292713;22;8873;-81
2021/09/24 11:21:20;;;;;;;;;2908.20;2905.60;;;;;;;;6321845;22;8752;-81
2021/09/24 11:23:46;;;;;;;;;2904.80;2903.60;;;;;;;;6321387;22;8724;-82
2021/09/24 11:26:13;;;;;;;;;2214.20;2210.60;;;;;;;;6321845;22;8743;-81
2021/09/24 11:28:39;;;;;;;;;2893.00;2892.00;;;;;;;;6321143;22;8752;-81
2021/09/24 11:31:05;;;;;;;;;2891.20;2889.80;;;;;;;;6293338;22;8752;-82
2021/09/24 11:33:40;;;;;;;;;3042.00;3041.25;;;;;;;;6321475;22;9331;-82
2021/09/24 11:36:06;;;;;;;;;2889.60;2887.60;;;;;;;;6321778;22;8752;-82
2021/09/24 11:38:32;;;;;;;;;3316.80;3316.80;;;;;;;;6321614;22;8744;-82
2021/09/24 11:40:58;;;;;;;;;3316.50;3316.50;;;;;;;;6321366;22;8752;-82
2021/09/24 11:43:29;;;;;;;;;3626.25;3626.25;;;;;;;;6321159;22;8841;-82
2021/09/24 11:45:55;;;;;;;;;3612.25;3612.25;;;;;;;;6321580;22;8751;-82
2021/09/24 11:48:28;;;;;;;;;3313.20;3313.20;;;;;;;;6320930;22;9584;-82
2021/09/24 11:50:53;;;;;;;;;3316.80;3316.80;;;;;;;;6321445;22;8787;-82
2021/09/24 11:53:18;;;;;;;;;3622.00;3622.00;;;;;;;;6321830;22;8745;-82
2021/09/24 11:55:46;;;;;;;;;3311.00;3311.00;;;;;;;;6321826;22;8863;-82
2021/09/24 11:58:24;;;;;;;;;3316.50;3316.50;;;;;;;;6321033;22;8719;-82
2021/09/24 12:00:54;;;;;;;;;3628.25;3628.25;;;;;;;;6321370;22;8737;-82
2021/09/24 12:03:21;;;;;;;;;3630.00;3630.00;;;;;;;;6321161;22;8721;-83
2021/09/24 12:05:52;;;;;;;;;3316.50;3316.50;;;;;;;;6293228;22;11523;-83
2021/09/24 12:08:20;;;;;;;;;3626.25;3626.25;;;;;;;;6321671;22;8721;-82
2021/09/24 12:10:45;;;;;;;;;3626.25;3626.25;;;;;;;;6321451;22;8851;-82
2021/09/24 12:13:13;;;;;;;;;3319.50;3319.50;;;;;;;;6292609;22;8853;-81
2021/09/24 12:15:48;;;;;;;;;3628.25;3628.25;;;;;;;;6321623;22;8873;-81
2021/09/24 12:18:13;;;;;;;;;3567.00;3567.00;;;;;;;;6321470;22;8688;-81
2021/09/24 12:20:38;;;;;;;;;3611.67;3611.67;;;;;;;;6321394;22;8863;-80
2021/09/24 12:23:04;;;;;;;;;3315.00;3315.00;;;;;;;;6321357;22;8767;-82
2021/09/24 12:25:29;;;;;;;;;3315.00;3315.00;;;;;;;;6293250;22;8756;-81
2021/09/24 12:28:06;;;;;;;;;3563.00;3563.00;;;;;;;;6320559;22;8748;-82
2021/09/24 12:30:37;;;;;;;;;3572.20;3572.20;;;;;;;;6352351;22;8727;-81
2021/09/24 12:33:10;;;;;;;;;3326.00;3326.00;;;;;;;;6352622;22;9441;-81
2021/09/24 12:35:35;;;;;;;;;3634.00;3634.00;;;;;;;;6352217;22;8710;-82
2021/09/24 12:38:00;;;;;;;;;3563.00;3563.00;;;;;;;;6352291;22;8735;-81
2021/09/24 12:40:26;;;;;;;;;3311.00;3311.00;;;;;;;;6352834;22;8802;-82
2021/09/24 12:42:58;;;;;;;;;3308.25;3308.25;;;;;;;;6352184;22;8744;-81
2021/09/24 12:45:35;;;;;;;;;3323.40;3323.40;;;;;;;;6351724;22;8716;-81
2021/09/24 12:48:07;;;;;;;;;3724.40;3724.40;;;;;;;;6352785;22;8716;-81
2021/09/24 12:50:33;;;;;;;;;3326.00;3326.00;;;;;;;;6352295;22;8806;-81
2021/09/24 12:52:59;;;;;;;;;3308.25;3308.25;;;;;;;;6352145;22;8744;-81
2021/09/24 12:55:24;;;;;;;;;3317.00;3317.00;;;;;;;;6352595;22;8846;-82
2021/09/24 12:57:51;;;;;;;;;3623.00;3623.00;;;;;;;;6352145;22;8732;-82
2021/09/24 13:00:17;;;;;;;;;3322.20;3322.20;;;;;;;;6352071;22;8702;-81
2021/09/24 13:02:42;;;;;;;;;3600.33;3600.33;;;;;;;;6352436;22;9428;-82
2021/09/24 13:05:08;;;;;;;;;3609.00;3609.00;;;;;;;;6351953;22;8735;-81
2021/09/24 13:07:33;;;;;;;;;3274.50;3274.50;;;;;;;;6352303;22;8723;-81
2021/09/24 13:10:10;;;;;;;;;3652.50;3652.50;;;;;;;;6352631;22;8736;-81
2021/09/24 13:12:36;;;;;;;;;3319.20;3319.20;;;;;;;;6351734;22;9700;-82
2021/09/24 13:15:06;;;;;;;;;3659.00;3659.00;;;;;;;;6352012;22;8668;-81
2021/09/24 13:17:31;;;;;;;;;3657.40;3657.40;;;;;;;;6352550;22;8808;-82
2021/09/24 13:19:57;;;;;;;;;3652.50;3652.50;;;;;;;;6352515;22;8720;-81
2021/09/24 13:22:23;;;;;;;;;3298.50;3298.50;;;;;;;;6351755;22;8731;-81
2021/09/24 13:24:49;;;;;;;;;3277.20;3277.20;;;;;;;;6351980;22;8781;-83
2021/09/24 13:27:15;;;;;;;;;3274.50;3274.50;;;;;;;;6352026;22;8830;-83
2021/09/24 13:29:40;;;;;;;;;3274.50;3274.50;;;;;;;;6351971;22;8771;-83
2021/09/24 13:32:09;;;;;;;;;3595.25;3595.25;;;;;;;;6352371;22;8728;-83
2021/09/24 13:34:34;;;;;;;;;3319.20;3319.20;;;;;;;;6352368;22;8846;-83
2021/09/24 13:36:59;;;;;;;;;3312.75;3312.75;;;;;;;;6352702;22;8739;-83
2021/09/24 13:39:25;;;;;;;;;3601.25;3601.25;;;;;;;;6323909;22;9013;-83